Time;durP1;ratioP1;P1;durP2;ratioP2;P2;SDS_P1;SDS_P2;PMS_P1;PMS_P2;Temp;Humidity;BMP_temperature;BMP_pressure;BME280_temperature;BME280_humidity;BME280_pressure;Samples;Min_cycle;Max_cycle;Signal;HPM_P1;HPM_P2
2022/01/16 00:00:54;;;;;;;21.52;14.93;;;;;;;17.67;40.95;102026.75;5055211;28;20032;-70
2022/01/16 00:06:04;;;;;;;15.88;14.00;;;;;;;17.66;40.87;102029.88;5055754;28;20082;-71
2022/01/16 00:08:30;;;;;;;17.88;14.00;;;;;;;17.60;41.04;102023.69;5055244;28;20107;-70
2022/01/16 00:10:55;;;;;;;20.80;13.77;;;;;;;17.60;40.91;102022.88;5055278;28;20032;-70
2022/01/16 00:13:23;;;;;;;19.85;15.27;;;;;;;17.58;41.00;102014.94;5055001;28;20036;-70
2022/01/16 00:15:48;;;;;;;18.48;13.63;;;;;;;17.56;40.88;102017.22;5055044;28;20039;-74
2022/01/16 00:18:26;;;;;;;21.08;14.00;;;;;;;17.59;41.00;102018.50;5055124;28;20037;-71
2022/01/16 00:20:53;;;;;;;17.85;14.00;;;;;;;17.60;40.82;102011.84;5037130;28;20403;-71
2022/01/16 00:23:24;;;;;;;20.35;13.20;;;;;;;17.74;40.65;102001.41;5054945;28;20021;-71
2022/01/16 00:25:52;;;;;;;16.83;12.95;;;;;;;17.70;40.62;102006.81;5053953;28;20517;-71
2022/01/16 00:28:17;;;;;;;16.65;13.52;;;;;;;17.72;40.65;101998.97;5055218;28;20032;-72
2022/01/16 00:30:43;;;;;;;15.65;13.25;;;;;;;17.72;40.65;101998.97;5054845;28;20150;-71
2022/01/16 00:33:08;;;;;;;22.42;14.90;;;;;;;17.73;40.49;102000.59;5054863;28;20053;-86
2022/01/16 00:35:34;;;;;;;20.52;13.93;;;;;;;17.64;40.72;101996.22;5054607;28;20025;-70
2022/01/16 00:37:59;;;;;;;16.33;13.02;;;;;;;17.67;40.80;102001.09;5054286;28;20029;-70
2022/01/16 00:40:25;;;;;;;21.05;13.60;;;;;;;17.65;40.85;102004.19;5036709;28;20028;-73
2022/01/16 00:42:51;;;;;;;19.80;13.65;;;;;;;17.60;41.06;102011.84;5036737;28;20090;-69
2022/01/16 00:45:17;;;;;;;21.20;13.05;;;;;;;17.61;40.76;102008.75;5054396;28;20365;-70
2022/01/16 00:47:42;;;;;;;22.92;14.18;;;;;;;17.59;40.92;102012.97;5054302;28;20083;-72
2022/01/16 00:50:08;;;;;;;19.77;14.40;;;;;;;17.54;40.89;102007.66;5054528;28;20032;-69
2022/01/16 00:52:34;;;;;;;17.75;14.18;;;;;;;17.59;40.86;102012.97;5054246;28;20048;-69
2022/01/16 00:55:04;;;;;;;20.60;14.48;;;;;;;17.59;40.74;102022.06;5036811;28;20021;-70
2022/01/16 00:57:30;;;;;;;19.23;13.77;;;;;;;17.60;40.83;102020.13;5053638;28;20021;-70
2022/01/16 00:59:56;;;;;;;15.93;13.65;;;;;;;17.59;40.89;102018.50;5053102;28;20032;-78
2022/01/16 01:02:23;;;;;;;23.02;13.65;;;;;;;17.57;40.93;102013.31;5054007;28;20021;-69
2022/01/16 01:04:49;;;;;;;18.83;13.35;;;;;;;17.60;40.81;102009.88;5054274;28;20426;-69
2022/01/16 01:07:15;;;;;;;20.23;12.45;;;;;;;17.60;40.70;102015.41;5054221;28;20024;-70
2022/01/16 01:09:41;;;;;;;18.20;13.30;;;;;;;17.61;40.57;102017.06;5054004;28;20029;-70
2022/01/16 01:12:09;;;;;;;17.10;12.43;;;;;;;17.60;40.74;102022.88;5053837;28;20494;-70
2022/01/16 01:14:41;;;;;;;17.40;13.52;;;;;;;17.59;40.82;102019.31;5053870;28;20078;-69
2022/01/16 01:17:09;;;;;;;21.52;12.98;;;;;;;17.58;40.85;102020.47;5054030;28;20036;-85
2022/01/16 01:19:35;;;;;;;16.42;12.77;;;;;;;17.56;40.93;102021.94;5035987;28;20111;-71
2022/01/16 01:22:04;;;;;;;16.70;11.70;;;;;;;17.48;40.92;102015.28;5053989;28;20091;-70
2022/01/16 01:24:30;;;;;;;18.52;12.43;;;;;;;17.51;40.68;102009.09;5053690;28;20127;-80
2022/01/16 01:27:05;;;;;;;14.38;11.25;;;;;;;17.48;40.89;102001.47;5053422;28;20045;-71
2022/01/16 01:29:31;;;;;;;18.63;12.63;;;;;;;17.42;40.80;102022.94;5035888;28;20108;-71
2022/01/16 01:31:57;;;;;;;14.38;11.30;;;;;;;17.26;41.04;102019.06;5053284;28;20432;-71
2022/01/16 01:34:23;;;;;;;19.55;12.35;;;;;;;17.19;40.91;101986.41;5053414;28;20025;-70
2022/01/16 01:36:49;;;;;;;14.07;12.57;;;;;;;17.11;41.00;102012.09;5053397;28;20035;-71
2022/01/16 01:39:17;;;;;;;17.02;10.45;;;;;;;17.05;40.98;102007.06;5053419;28;20020;-70
2022/01/16 01:41:43;;;;;;;14.95;12.40;;;;;;;16.97;40.98;102025.25;5035430;28;20029;-70
2022/01/16 01:52:22;;;;;;;28.15;14.32;;;;;;;16.60;41.32;102021.97;5053434;28;20509;-70
2022/01/16 01:54:48;;;;;;;21.10;13.43;;;;;;;16.52;41.25;102013.69;5053027;28;20053;-70
2022/01/16 01:57:14;;;;;;;20.48;14.13;;;;;;;16.45;41.35;101974.72;5053148;28;20029;-70
2022/01/16 01:59:39;;;;;;;20.83;15.07;;;;;;;16.35;41.59;101912.41;5052917;28;20471;-70
2022/01/16 02:02:06;;;;;;;20.00;14.70;;;;;;;16.26;41.56;101889.53;5053017;28;20017;-80
2022/01/16 02:04:32;;;;;;;16.95;14.73;;;;;;;16.27;41.64;101954.59;5053207;28;20021;-70
2022/01/16 02:06:58;;;;;;;16.73;14.40;;;;;;;16.22;41.67;101949.22;5052836;28;20032;-70
2022/01/16 02:09:24;;;;;;;22.60;14.57;;;;;;;16.06;41.85;101977.22;5052729;28;20021;-70
2022/01/16 02:11:52;;;;;;;19.40;15.30;;;;;;;16.20;41.74;101999.19;5052750;28;20017;-71
2022/01/16 02:14:35;;;;;;;21.17;15.20;;;;;;;16.28;41.58;102030.66;5052782;28;20102;-70
2022/01/16 02:28:40;;;;;;;20.33;14.77;;;;;;;16.41;41.29;102031.69;5052836;28;20039;-83
2022/01/16 02:31:19;;;;;;;21.65;15.20;;;;;;;16.40;41.26;102050.19;5034688;28;20033;-70
2022/01/16 02:36:28;;;;;;;22.85;16.10;;;;;;;16.38;41.30;102033.13;5052802;28;20025;-80
2022/01/16 02:39:06;;;;;;;21.20;16.27;;;;;;;16.29;41.64;102040.56;5034640;28;20028;-70
2022/01/16 02:41:32;;;;;;;19.33;14.55;;;;;;;16.30;41.43;102043.00;5049602;28;20086;-70
2022/01/16 02:43:58;;;;;;;20.70;16.02;;;;;;;16.34;41.47;102040.44;5052204;28;20025;-70
2022/01/16 02:48:49;;;;;;;20.60;16.23;;;;;;;16.34;41.54;102030.19;5052201;28;20120;-70
2022/01/16 02:51:17;;;;;;;23.73;17.30;;;;;;;16.31;41.65;102044.63;5052337;28;20017;-76
2022/01/16 02:53:44;;;;;;;23.33;16.48;;;;;;;16.16;42.04;102052.50;5052149;28;20025;-69
2022/01/16 02:56:11;;;;;;;22.42;17.05;;;;;;;15.94;42.57;102070.75;5052173;28;20529;-69
2022/01/16 02:58:37;;;;;;;23.42;17.52;;;;;;;15.89;42.62;102076.41;5051769;28;20441;-69
2022/01/16 03:01:02;;;;;;;23.90;18.33;;;;;;;15.61;43.00;102081.28;5034364;28;20029;-69
2022/01/16 03:03:28;;;;;;;27.38;18.20;;;;;;;15.76;42.67;102083.63;5052093;28;20025;-70
2022/01/16 03:05:54;;;;;;;25.00;19.85;;;;;;;15.91;42.39;102076.09;5052126;28;20029;-71
2022/01/16 03:08:19;;;;;;;22.73;18.83;;;;;;;15.91;42.28;102054.84;5052306;28;20033;-69
2022/01/16 03:13:41;;;;;;;22.02;17.80;;;;;;;15.82;42.44;102054.81;5038964;28;20045;-69
2022/01/16 03:16:07;;;;;;;24.92;18.83;;;;;;;15.84;42.49;102073.78;5051993;28;20479;-69
2022/01/16 03:24:03;;;;;;;22.83;18.40;;;;;;;15.76;42.71;102061.59;5052113;28;20124;-70
2022/01/16 03:26:28;;;;;;;27.83;18.70;;;;;;;15.77;42.76;102067.91;5051761;28;20131;-71
2022/01/16 03:28:54;;;;;;;31.33;21.35;;;;;;;15.74;42.87;102046.50;5034140;28;20061;-71
2022/01/16 03:31:19;;;;;;;27.88;18.67;;;;;;;15.70;42.86;102062.84;5051787;28;20021;-73
2022/01/16 03:33:45;;;;;;;22.48;18.48;;;;;;;15.79;42.76;102062.88;5034058;28;20035;-79
2022/01/16 03:36:12;;;;;;;26.55;19.52;;;;;;;15.86;42.65;102065.19;5051857;28;20099;-72
2022/01/16 03:38:37;;;;;;;25.85;19.90;;;;;;;15.87;42.83;102070.41;5034055;28;20021;-70
2022/01/16 03:41:03;;;;;;;27.05;18.52;;;;;;;15.78;43.16;102064.00;5051859;28;20028;-71
2022/01/16 03:43:29;;;;;;;23.17;18.65;;;;;;;15.88;42.95;102052.75;5051813;28;20021;-77
2022/01/16 03:45:55;;;;;;;24.30;18.73;;;;;;;15.87;42.96;102056.63;5033883;28;20380;-70
2022/01/16 03:48:20;;;;;;;27.30;19.02;;;;;;;15.76;43.36;102038.72;5052083;28;20024;-71
2022/01/16 03:50:46;;;;;;;31.10;20.35;;;;;;;15.85;43.38;102047.03;5051984;28;20416;-70
2022/01/16 03:53:11;;;;;;;27.33;20.38;;;;;;;15.92;42.98;102053.72;5051657;28;20056;-70
2022/01/16 03:55:37;;;;;;;21.58;18.00;;;;;;;16.02;42.84;102047.09;5051582;28;20383;-70
2022/01/16 03:58:04;;;;;;;24.88;19.02;;;;;;;16.00;42.85;102041.09;5051915;28;20021;-71
2022/01/16 04:00:30;;;;;;;24.38;19.40;;;;;;;15.97;42.92;102050.84;5051577;28;20025;-70
2022/01/16 04:02:56;;;;;;;23.13;19.55;;;;;;;15.98;43.04;102049.69;5054949;28;20017;-75
2022/01/16 04:05:22;;;;;;;22.00;18.98;;;;;;;16.02;42.98;102052.63;5055153;28;20102;-70
2022/01/16 04:07:47;;;;;;;25.73;17.50;;;;;;;16.00;42.91;102065.91;5037269;28;20395;-70
2022/01/16 04:10:14;;;;;;;23.13;19.58;;;;;;;15.97;43.08;102072.88;5055037;28;20025;-70
2022/01/16 04:12:40;;;;;;;23.85;19.17;;;;;;;15.93;43.22;102060.84;5055052;28;20104;-69
2022/01/16 04:17:44;;;;;;;23.92;19.45;;;;;;;15.64;44.03;102063.28;5054946;28;20115;-70
2022/01/16 04:20:10;;;;;;;24.58;19.63;;;;;;;15.90;43.60;102064.25;5054883;28;20017;-70
2022/01/16 04:22:36;;;;;;;22.27;18.77;;;;;;;15.89;43.40;102070.09;5054873;28;20525;-69
2022/01/16 04:25:01;;;;;;;22.63;18.67;;;;;;;15.84;43.65;102068.28;5054777;28;20029;-69
2022/01/16 04:27:27;;;;;;;24.38;19.42;;;;;;;16.01;43.23;102057.31;5054708;28;20515;-69
2022/01/16 04:29:52;;;;;;;24.05;18.30;;;;;;;15.99;43.55;102075.31;5054954;28;20025;-69
2022/01/16 04:32:18;;;;;;;23.30;18.40;;;;;;;16.00;43.39;102069.47;5054758;28;20025;-70
2022/01/16 04:34:44;;;;;;;29.35;19.45;;;;;;;15.89;43.70;102081.13;5054891;28;20120;-70
2022/01/16 04:37:09;;;;;;;21.83;16.63;;;;;;;16.00;43.67;102071.44;5054409;28;20104;-70
2022/01/16 04:39:36;;;;;;;24.83;18.02;;;;;;;15.94;43.56;102083.72;5054715;28;20066;-71
2022/01/16 04:44:52;;;;;;;20.90;16.92;;;;;;;15.98;43.64;102074.50;5050949;28;20037;-80
2022/01/16 04:47:18;;;;;;;21.65;17.30;;;;;;;16.06;43.59;102081.19;5054027;28;20495;-78
2022/01/16 04:49:44;;;;;;;25.75;18.00;;;;;;;16.06;43.46;102087.50;5053338;28;20094;-70
2022/01/16 04:52:09;;;;;;;21.83;16.90;;;;;;;15.97;43.68;102072.88;5053090;28;20033;-70
2022/01/16 04:54:35;;;;;;;22.38;17.75;;;;;;;16.04;43.80;102077.94;5053625;28;20025;-78
2022/01/16 04:57:00;;;;;;;24.05;17.88;;;;;;;15.87;44.09;102070.41;5053135;28;20068;-70
2022/01/16 04:59:26;;;;;;;24.23;18.23;;;;;;;16.07;43.69;102080.06;5054118;28;20028;-70
2022/01/16 05:01:51;;;;;;;23.13;17.88;;;;;;;16.02;43.96;102072.75;5053980;28;20296;-70
2022/01/16 05:04:17;;;;;;;22.13;16.98;;;;;;;15.93;44.33;102082.09;5054054;28;20029;-70
2022/01/16 05:06:43;;;;;;;22.60;17.38;;;;;;;16.01;44.01;102093.16;5053951;28;20021;-76
2022/01/16 05:09:09;;;;;;;22.50;17.08;;;;;;;15.87;44.44;102092.47;5054099;28;20029;-70
2022/01/16 05:11:34;;;;;;;20.08;16.10;;;;;;;15.85;44.56;102091.13;5053340;28;20391;-73
2022/01/16 05:16:36;;;;;;;22.10;16.17;;;;;;;16.06;44.13;102090.28;5052601;28;20112;-82
2022/01/16 05:19:10;;;;;;;22.38;17.08;;;;;;;15.94;44.43;102080.97;5047841;28;20071;-71
2022/01/16 05:21:37;;;;;;;21.15;16.42;;;;;;;16.06;44.02;102082.00;5052529;28;20043;-75
2022/01/16 05:24:07;;;;;;;18.55;15.57;;;;;;;16.15;43.78;102078.47;5052473;28;20112;-70
2022/01/16 05:26:34;;;;;;;21.30;15.98;;;;;;;16.11;44.18;102069.22;5052274;28;20068;-71
2022/01/16 05:29:00;;;;;;;19.33;15.20;;;;;;;16.08;44.40;102073.41;5052431;28;20040;-71
2022/01/16 05:31:26;;;;;;;19.88;15.68;;;;;;;16.16;44.01;102082.84;5052715;28;20027;-71
2022/01/16 05:33:52;;;;;;;25.25;16.00;;;;;;;16.16;44.14;102080.91;5052669;28;20112;-70
2022/01/16 05:36:21;;;;;;;21.05;15.18;;;;;;;15.94;44.73;102084.53;5052654;28;20063;-71
2022/01/16 05:38:47;;;;;;;16.73;14.13;;;;;;;16.01;44.51;102090.41;5052415;28;20021;-70
2022/01/16 05:41:12;;;;;;;19.52;13.75;;;;;;;16.04;44.63;102095.31;5052630;28;20036;-70
2022/01/16 05:43:38;;;;;;;21.63;14.85;;;;;;;16.26;43.93;102097.19;5052443;28;20024;-71
2022/01/16 05:46:04;;;;;;;18.88;15.20;;;;;;;16.41;43.94;102104.22;5052697;28;20028;-85
2022/01/16 05:48:29;;;;;;;19.10;14.93;;;;;;;16.28;44.31;102114.22;5052793;28;20029;-73
2022/01/16 05:50:55;;;;;;;18.77;14.88;;;;;;;16.38;44.08;102104.84;5051986;28;20021;-71
2022/01/16 05:53:21;;;;;;;15.63;13.93;;;;;;;16.17;44.36;102099.09;5049721;28;20032;-70
2022/01/16 05:55:47;;;;;;;18.45;15.02;;;;;;;16.28;44.43;102114.22;5051835;28;20048;-70
2022/01/16 05:58:14;;;;;;;20.17;15.45;;;;;;;16.44;44.01;102119.31;5051771;28;20109;-70
2022/01/16 06:00:39;;;;;;;21.65;15.43;;;;;;;16.16;44.69;102129.72;5051653;28;20487;-70
2022/01/16 06:03:06;;;;;;;17.90;14.23;;;;;;;16.20;44.43;102133.50;5051925;28;20021;-72
2022/01/16 06:05:32;;;;;;;24.25;15.15;;;;;;;16.17;44.81;102131.34;5052151;28;20025;-71
2022/01/16 06:08:00;;;;;;;23.80;14.63;;;;;;;16.40;44.30;102143.97;5052210;28;20384;-71
2022/01/16 06:10:27;;;;;;;18.77;14.65;;;;;;;16.41;44.17;102145.59;5052371;28;20403;-70
2022/01/16 06:12:53;;;;;;;20.27;15.48;;;;;;;16.53;43.92;102154.06;5052209;28;20029;-71
2022/01/16 06:15:20;;;;;;;24.33;14.10;;;;;;;16.55;44.03;102159.25;5051305;28;20016;-71
2022/01/16 06:17:46;;;;;;;21.65;15.20;;;;;;;16.62;43.94;102165.13;5051795;28;20099;-71
2022/01/16 06:20:14;;;;;;;19.25;13.00;;;;;;;16.23;44.90;102175.03;5051379;28;20539;-71
2022/01/16 06:22:40;;;;;;;17.88;12.32;;;;;;;16.60;43.96;102175.69;5051383;28;20368;-70
2022/01/16 06:25:06;;;;;;;20.15;14.25;;;;;;;16.67;44.00;102186.25;5032582;28;20037;-70
2022/01/16 06:27:31;;;;;;;18.95;13.52;;;;;;;16.71;44.10;102190.88;5033569;28;20472;-70
2022/01/16 06:29:57;;;;;;;21.45;13.13;;;;;;;16.67;44.33;102205.56;5051397;28;20017;-70
2022/01/16 06:32:22;;;;;;;15.77;12.80;;;;;;;16.63;44.43;102208.97;5051711;28;20040;-75
2022/01/16 06:34:48;;;;;;;19.63;12.70;;;;;;;16.32;45.37;102217.28;5051249;28;20074;-71
2022/01/16 06:37:14;;;;;;;19.42;13.65;;;;;;;16.73;44.22;102221.72;5051100;28;20047;-71
2022/01/16 06:39:39;;;;;;;23.75;13.93;;;;;;;16.59;44.80;102238.34;5033405;28;20029;-71
2022/01/16 06:42:05;;;;;;;17.75;14.43;;;;;;;16.82;44.31;102252.09;5051805;28;20029;-74
2022/01/16 06:44:30;;;;;;;15.82;12.32;;;;;;;16.63;44.71;102253.13;5050778;28;20029;-72
2022/01/16 06:46:56;;;;;;;18.20;13.35;;;;;;;16.92;43.84;102258.13;5051217;28;20476;-74
2022/01/16 06:49:22;;;;;;;17.00;12.70;;;;;;;16.96;43.73;102269.38;5051555;28;20031;-85
2022/01/16 06:51:47;;;;;;;17.27;13.05;;;;;;;17.06;43.55;102274.59;5033108;28;20513;-71
2022/01/16 06:54:13;;;;;;;20.05;13.57;;;;;;;17.03;43.78;102278.00;5051041;28;20033;-71
2022/01/16 06:56:38;;;;;;;20.48;15.30;;;;;;;17.11;43.65;102282.75;5051078;28;20490;-72
2022/01/16 06:59:04;;;;;;;17.00;12.27;;;;;;;17.11;43.70;102277.22;5051166;28;20174;-71
2022/01/16 07:01:30;;;;;;;15.98;12.43;;;;;;;17.12;43.64;102286.31;5050946;28;20527;-71
2022/01/16 07:03:56;;;;;;;14.70;12.32;;;;;;;17.17;43.37;102300.00;5050866;28;20716;-71
2022/01/16 07:06:23;;;;;;;18.98;12.35;;;;;;;17.25;43.29;102306.69;5048189;28;20017;-71
2022/01/16 07:08:49;;;;;;;16.75;11.38;;;;;;;17.22;43.60;102315.59;5050539;28;20021;-71
2022/01/16 07:11:16;;;;;;;15.77;11.52;;;;;;;17.07;43.93;102325.13;5050976;28;20044;-71
2022/01/16 07:13:41;;;;;;;12.93;9.80;;;;;;;17.01;44.06;102323.66;5045650;28;20071;-71
2022/01/16 07:16:07;;;;;;;12.57;9.75;;;;;;;17.08;44.05;102335.06;5051018;28;20553;-71
2022/01/16 07:18:33;;;;;;;14.73;9.43;;;;;;;17.19;43.79;102337.19;5051094;28;20361;-71
2022/01/16 07:20:59;;;;;;;14.80;8.32;;;;;;;17.19;43.61;102345.50;5050825;28;20483;-71
2022/01/16 07:23:25;;;;;;;12.40;7.13;;;;;;;17.12;43.77;102356.19;5051424;28;20032;-73
2022/01/16 07:25:52;;;;;;;11.82;8.35;;;;;;;17.18;43.80;102368.72;5050954;28;20557;-71
2022/01/16 07:28:17;;;;;;;13.63;7.18;;;;;;;17.02;44.05;102381.31;5050972;28;20078;-71
2022/01/16 07:30:43;;;;;;;15.90;7.25;;;;;;;16.97;43.94;102392.50;5050801;28;20009;-71
2022/01/16 07:33:09;;;;;;;12.88;6.50;;;;;;;17.17;43.57;102397.47;5050871;28;20075;-71
2022/01/16 07:35:38;;;;;;;10.70;7.53;;;;;;;17.04;43.87;102409.44;5052313;28;20028;-71
2022/01/16 07:38:06;;;;;;;10.90;6.78;;;;;;;17.07;43.53;102417.06;5052449;28;20055;-71
2022/01/16 07:40:32;;;;;;;11.50;6.65;;;;;;;16.96;43.80;102418.47;5055686;28;20033;-71
2022/01/16 07:42:59;;;;;;;11.02;5.80;;;;;;;16.84;43.81;102421.78;5055673;28;20036;-71
2022/01/16 07:45:25;;;;;;;13.20;6.00;;;;;;;16.93;43.50;102424.63;5055442;28;20479;-71
2022/01/16 07:47:51;;;;;;;18.50;6.50;;;;;;;17.06;43.32;102437.53;5055389;28;20120;-71
2022/01/16 07:50:17;;;;;;;10.18;4.57;;;;;;;16.64;44.17;102430.56;5055654;28;20075;-71
2022/01/16 07:52:43;;;;;;;10.23;4.07;;;;;;;16.63;43.85;102438.03;5055383;28;20068;-84
2022/01/16 07:55:09;;;;;;;9.90;5.30;;;;;;;16.54;44.14;102450.13;5055405;28;20380;-76
2022/01/16 07:57:35;;;;;;;15.98;5.35;;;;;;;16.22;44.54;102445.63;5055249;28;20029;-71
2022/01/16 08:00:01;;;;;;;11.25;5.03;;;;;;;16.71;43.45;102447.53;5055295;28;20037;-71
2022/01/16 08:02:27;;;;;;;9.88;4.20;;;;;;;16.68;43.69;102458.34;5055138;28;20036;-71
2022/01/16 08:04:52;;;;;;;10.13;3.75;;;;;;;16.78;43.00;102460.91;5037266;28;20399;-73
2022/01/16 08:07:18;;;;;;;9.82;4.50;;;;;;;16.78;42.75;102458.97;5055148;28;20392;-71
2022/01/16 08:09:43;;;;;;;12.80;4.28;;;;;;;16.70;42.86;102453.34;5055067;28;20430;-71
2022/01/16 08:12:11;;;;;;;5.80;3.25;;;;;;;16.63;42.82;102446.31;5037225;28;20102;-71
2022/01/16 08:14:37;;;;;;;12.98;3.88;;;;;;;16.52;42.93;102453.19;5052081;28;20037;-71
2022/01/16 08:17:03;;;;;;;15.27;5.45;;;;;;;16.54;42.97;102461.97;5052143;28;20155;-84
2022/01/16 08:19:29;;;;;;;11.73;4.50;;;;;;;16.40;42.88;102469.50;5038527;28;20368;-71
2022/01/16 08:21:55;;;;;;;15.98;4.38;;;;;;;16.54;42.74;102475.75;5052369;28;20020;-71
2022/01/16 08:24:21;;;;;;;25.00;16.63;;;;;;;16.44;42.78;102478.75;5053557;28;20021;-70
2022/01/16 08:26:47;;;;;;;16.27;6.43;;;;;;;16.48;42.76;102484.50;5053391;28;20041;-71
2022/01/16 08:29:13;;;;;;;10.13;3.80;;;;;;;16.47;42.68;102486.41;5053493;28;20028;-74
2022/01/16 08:31:39;;;;;;;15.02;3.72;;;;;;;16.31;42.94;102496.97;5042863;28;20025;-73
2022/01/16 08:34:05;;;;;;;14.13;5.43;;;;;;;16.34;42.85;102490.03;5053758;28;20084;-71
2022/01/16 08:36:30;;;;;;;13.38;4.68;;;;;;;16.44;42.68;102500.84;5053151;28;20104;-71
2022/01/16 08:38:56;;;;;;;16.23;6.30;;;;;;;16.43;42.67;102515.75;5053261;28;20080;-71
2022/01/16 08:41:23;;;;;;;13.02;5.78;;;;;;;16.59;42.28;102513.47;5053461;28;20017;-70
2022/01/16 08:43:48;;;;;;;14.23;3.33;;;;;;;16.60;42.21;102515.09;5054347;28;20507;-71
2022/01/16 08:46:15;;;;;;;24.38;7.78;;;;;;;16.59;42.47;102533.59;5054198;28;20048;-72
2022/01/16 08:48:40;;;;;;;13.73;3.47;;;;;;;16.46;42.50;102547.44;5053809;28;20021;-72
2022/01/16 08:51:07;;;;;;;11.32;4.30;;;;;;;16.46;42.38;102552.94;5054212;28;20021;-72
2022/01/16 08:53:33;;;;;;;22.33;6.72;;;;;;;16.44;42.56;102556.03;5054152;28;20399;-72
2022/01/16 08:55:59;;;;;;;10.30;3.60;;;;;;;16.48;42.47;102562.56;5053137;28;20067;-72
2022/01/16 08:58:26;;;;;;;13.70;4.32;;;;;;;16.59;42.06;102574.19;5050657;28;20503;-72
2022/01/16 09:00:52;;;;;;;15.15;4.63;;;;;;;16.45;42.28;102588.00;5053419;28;20013;-79
2022/01/16 09:03:19;;;;;;;13.90;5.05;;;;;;;16.64;42.04;102602.50;5053110;28;20091;-79
2022/01/16 09:05:46;;;;;;;16.52;5.25;;;;;;;16.71;41.79;102604.06;5053043;28;20071;-80
2022/01/16 09:08:13;;;;;;;15.48;4.53;;;;;;;16.66;42.05;102607.72;5052022;28;20025;-78
2022/01/16 09:10:38;;;;;;;13.50;4.10;;;;;;;16.75;41.59;102605.06;5051095;28;20021;-79
2022/01/16 09:13:04;;;;;;;17.15;3.83;;;;;;;16.82;41.61;102616.50;5051302;28;20017;-78
2022/01/16 09:15:30;;;;;;;15.82;3.85;;;;;;;16.76;41.70;102624.06;5053332;28;20029;-78
2022/01/16 09:17:56;;;;;;;22.17;5.55;;;;;;;16.78;41.58;102615.50;5054224;28;20074;-78
2022/01/16 09:20:22;;;;;;;11.43;3.28;;;;;;;16.74;41.78;102620.81;5040225;28;20036;-77
2022/01/16 09:22:49;;;;;;;9.82;2.78;;;;;;;16.71;41.60;102624.19;5035153;28;20075;-79
2022/01/16 09:25:18;;;;;;;15.65;3.90;;;;;;;16.70;41.68;102632.75;5033388;28;20057;-78
2022/01/16 09:27:44;;;;;;;11.32;2.60;;;;;;;16.64;41.66;102643.09;5034389;28;20037;-80
2022/01/16 09:30:10;;;;;;;12.35;3.25;;;;;;;16.58;41.66;102639.59;5034989;28;20158;-79
2022/01/16 09:32:37;;;;;;;16.00;5.30;;;;;;;16.63;41.58;102669.06;5035121;28;20024;-78
2022/01/16 09:35:05;;;;;;;14.05;3.60;;;;;;;16.70;41.44;102686.06;5034334;28;20071;-81
2022/01/16 09:37:30;;;;;;;24.08;4.00;;;;;;;16.59;41.66;102695.63;5034854;28;20029;-78
2022/01/16 09:39:58;;;;;;;11.95;3.60;;;;;;;16.72;41.34;102705.88;5035716;28;20029;-76
2022/01/16 09:42:24;;;;;;;16.33;3.55;;;;;;;16.80;40.99;102713.44;5036083;28;20115;-78
2022/01/16 09:44:51;;;;;;;18.25;3.45;;;;;;;16.84;41.04;102719.97;5037550;28;21043;-83
2022/01/16 09:47:16;;;;;;;15.63;3.88;;;;;;;16.84;41.05;102725.47;5025175;28;20196;-84
2022/01/16 09:49:42;;;;;;;18.70;3.58;;;;;;;16.73;41.24;102724.06;5041498;28;20865;-86
2022/01/16 09:52:08;;;;;;;11.50;3.58;;;;;;;16.86;40.73;102730.72;5029910;28;20049;-82
2022/01/16 09:54:36;;;;;;;16.33;5.13;;;;;;;16.74;40.68;102727.66;5031306;28;20029;-86
2022/01/16 09:57:02;;;;;;;17.63;5.63;;;;;;;16.89;40.62;102743.91;5031187;28;20036;-76
2022/01/16 09:59:27;;;;;;;18.23;5.78;;;;;;;16.83;40.61;102743.19;5033683;28;20041;-76
2022/01/16 10:01:53;;;;;;;18.05;4.20;;;;;;;16.81;40.53;102748.19;5035377;28;21052;-79
2022/01/16 10:04:37;;;;;;;17.33;4.70;;;;;;;16.92;40.18;102748.81;5036240;28;20060;-79
2022/01/16 10:07:08;;;;;;;17.48;4.03;;;;;;;16.92;40.57;102768.13;5036443;28;20056;-75
2022/01/16 10:09:39;;;;;;;17.85;6.45;;;;;;;16.93;40.16;102772.56;5035211;28;20032;-80
2022/01/16 10:12:15;;;;;;;15.77;6.47;;;;;;;17.08;39.74;102763.13;5048267;28;20033;-75
2022/01/16 10:14:47;;;;;;;14.98;5.55;;;;;;;17.10;39.85;102781.03;5050149;28;20070;-74
2022/01/16 10:17:19;;;;;;;23.45;7.15;;;;;;;17.00;39.43;102783.97;5049117;28;20033;-77
2022/01/16 10:19:55;;;;;;;19.48;7.40;;;;;;;17.01;39.03;102802.22;5051481;28;20029;-75
2022/01/16 10:22:21;;;;;;;23.40;10.43;;;;;;;17.08;39.16;102788.81;5030839;28;20070;-75
2022/01/16 10:24:51;;;;;;;22.55;4.78;;;;;;;16.99;38.96;102798.91;5051157;28;20383;-76
2022/01/16 10:27:18;;;;;;;;;;;;;;;17.01;38.38;102807.72;5052033;28;20033;-77
2022/01/16 10:29:52;;;;;;;17.75;4.85;;;;;;;17.14;38.27;102809.66;5051980;28;20639;-79
2022/01/16 10:32:26;;;;;;;14.85;3.75;;;;;;;17.30;38.26;102823.97;5049845;28;20032;-75
2022/01/16 10:35:22;;;;;;;14.70;4.72;;;;;;;17.11;37.33;102823.28;5033438;28;20402;-73
2022/01/16 10:37:53;;;;;;;28.70;7.20;;;;;;;17.42;37.73;102820.69;5032881;28;20040;-81
2022/01/16 10:40:20;;;;;;;15.27;4.03;;;;;;;17.39;37.86;102826.84;5031462;28;20021;-74
2022/01/16 10:42:55;;;;;;;22.10;5.25;;;;;;;17.27;37.77;102830.13;5033477;28;20483;-81
2022/01/16 10:45:26;;;;;;;19.15;5.63;;;;;;;17.39;37.30;102835.97;5044669;28;20025;-78
2022/01/16 10:47:54;;;;;;;17.50;6.40;;;;;;;17.29;37.28;102840.84;5050943;28;20066;-77
2022/01/16 10:50:42;;;;;;;16.05;5.25;;;;;;;17.26;37.16;102847.00;5051946;28;20113;-81
2022/01/16 10:53:11;;;;;;;18.27;6.10;;;;;;;17.30;36.99;102868.19;5050039;28;20028;-79
2022/01/16 10:55:46;;;;;;;19.60;6.95;;;;;;;16.91;36.04;102877.75;5052132;28;20032;-81
2022/01/16 10:58:24;;;;;;;21.75;7.00;;;;;;;17.18;35.80;102885.28;5041365;28;20035;-82
2022/01/16 11:00:54;;;;;;;23.88;6.57;;;;;;;17.31;35.88;102875.38;5035021;28;20048;-79
2022/01/16 11:03:20;;;;;;;;;;;;;;;17.06;35.37;102860.09;5036474;28;20061;-82
2022/01/16 11:05:47;;;;;;;15.02;4.20;;;;;;;17.35;35.89;102859.78;5035699;28;20814;-74
2022/01/16 11:08:15;;;;;;;21.45;4.07;;;;;;;17.31;35.61;102867.06;5036716;28;20056;-80
2022/01/16 11:10:48;;;;;;;19.40;5.63;;;;;;;17.24;35.33;102866.66;5023220;28;20025;-81
2022/01/16 11:13:19;;;;;;;32.80;10.88;;;;;;;17.19;35.14;102866.75;5056539;28;20025;-82
2022/01/16 11:15:50;;;;;;;16.13;5.13;;;;;;;17.29;35.11;102871.25;5056275;28;20158;-77
2022/01/16 11:18:18;;;;;;;22.42;8.27;;;;;;;17.36;35.41;102866.13;5056448;28;20036;-79
2022/01/16 11:20:53;;;;;;;25.35;5.47;;;;;;;17.24;35.42;102865.84;5056339;28;20029;-79
2022/01/16 11:23:33;;;;;;;15.65;4.95;;;;;;;17.16;35.60;102875.66;5056091;28;20029;-81
2022/01/16 11:26:04;;;;;;;18.55;4.20;;;;;;;17.15;34.92;102855.50;5056023;28;20051;-81
2022/01/16 11:28:30;;;;;;;16.42;4.28;;;;;;;17.22;35.33;102862.56;5056049;28;20061;-74
2022/01/16 11:31:01;;;;;;;21.48;4.47;;;;;;;17.13;35.13;102856.91;5053753;28;20111;-74
2022/01/16 11:33:29;;;;;;;12.93;3.60;;;;;;;17.26;34.78;102849.78;5055635;28;20408;-75
2022/01/16 11:36:01;;;;;;;25.73;5.45;;;;;;;17.28;34.74;102839.22;5055548;28;20484;-75
2022/01/16 11:38:31;;;;;;;19.02;5.78;;;;;;;17.24;34.99;102836.28;5037705;28;20498;-75
2022/01/16 11:41:02;;;;;;;18.10;4.30;;;;;;;17.04;34.97;102847.72;5055059;28;20021;-75
2022/01/16 11:43:34;;;;;;;15.77;4.78;;;;;;;17.15;35.00;102847.22;5036542;28;20033;-76
2022/01/16 11:46:03;;;;;;;9.80;3.92;;;;;;;17.21;34.94;102861.72;5055289;28;20028;-75
2022/01/16 11:48:57;;;;;;;20.52;4.03;;;;;;;17.38;34.69;102867.47;5055441;28;20472;-75
2022/01/16 11:51:35;;;;;;;16.63;4.45;;;;;;;17.47;34.91;102867.56;5055320;28;20029;-75
2022/01/16 11:54:22;;;;;;;18.95;5.53;;;;;;;17.62;34.68;102870.00;5055362;28;20055;-75
2022/01/16 11:56:49;;;;;;;11.55;4.22;;;;;;;17.70;34.71;102872.09;5055212;28;20438;-75
2022/01/16 11:59:20;;;;;;;15.40;5.00;;;;;;;17.64;34.36;102870.50;5055141;28;20052;-75